Rorichmoor — V2BV7 — position and weather

sailwx.info

Track history (hours):
 
Tides and Currents Weather Stations Pressure Air Temp Water Temp Dewpoint Dewpoint Depression Visibility Wind Speed Wind Dir Waves Ship Positions

Rorichmoor

Last reported at 2014-Oct-25 01:11 UTC. Time now 2014-Oct-25 01:39 UTC.
Position N 44°13' E 008°35'.

Length 80 m; draft 4.4 m.

Type: Cargo ship. MMSI: 304938000.

Date/timePositionNaut miles runAvg speedWind from/ knotsBaromVisibWave heightAir tempDewpointWater temp
2014-Oct-25 01:11N 44°13' E 008°35'2 3.0
2014-Oct-25 00:33N 44°13' E 008°32'55 9.2
2014-Oct-24 18:33N 43°30' E 007°44'1110.1
2014-Oct-24 17:25N 43°22' E 007°32'910.4
2014-Oct-24 16:33N 43°16' E 007°23'20 9.9
2014-Oct-24 14:33N 43°03' E 007°02'38 9.1
2014-Oct-24 10:24N 42°39' E 006°24'118 7.3
2014-Oct-23 18:24N 41°21' E 004°25'12 6.4
2014-Oct-23 16:29N 41°13' E 004°13'52 8.0
2014-Oct-23 10:04N 40°40' E 003°21'6 8.7
2014-Oct-23 09:24N 40°36' E 003°15'810.0
2014-Oct-23 08:33N 40°30' E 003°07'11 7.5
2014-Oct-23 07:08N 40°23' E 002°57'5 8.0
2014-Oct-23 06:27N 40°19' E 002°51'215 8.5
2014-Oct-22 05:04N 37°44' W 000°21'4 8.6
2014-Oct-22 04:33N 37°40' W 000°24'9 8.7
2014-Oct-22 03:32N 37°33' W 000°31'12 8.8
2014-Oct-22 02:08N 37°27' W 000°44'6 8.8
2014-Oct-22 01:26N 37°24' W 000°51'  
2014-Oct-19 11:09N 35°59' W 005°15'810.8
2014-Oct-19 10:26N 35°58' W 005°24'89 8.8
2014-Oct-19 00:25N 34°55' W 006°41'  
Track history (hours):
 
Tides and Currents Weather Stations Pressure Air Temp Water Temp Dewpoint Dewpoint Depression Visibility Wind Speed Wind Dir Waves Ship Positions

Rorichmoor

Last reported at 2014-Oct-25 01:11 UTC. Time now 2014-Oct-25 01:39 UTC.
Position N 44°13' E 008°35'.

Length 80 m; draft 4.4 m.

Type: Cargo ship. MMSI: 304938000.

Date/timePositionNaut miles runAvg speedWind from/ knotsBaromVisibWave heightAir tempDewpointWater temp
2014-Oct-25 01:11N 44°13' E 008°35'2 3.0
2014-Oct-25 00:33N 44°13' E 008°32'55 9.2
2014-Oct-24 18:33N 43°30' E 007°44'1110.1
2014-Oct-24 17:25N 43°22' E 007°32'910.4
2014-Oct-24 16:33N 43°16' E 007°23'20 9.9
2014-Oct-24 14:33N 43°03' E 007°02'38 9.1
2014-Oct-24 10:24N 42°39' E 006°24'118 7.3
2014-Oct-23 18:24N 41°21' E 004°25'12 6.4
2014-Oct-23 16:29N 41°13' E 004°13'52 8.0
2014-Oct-23 10:04N 40°40' E 003°21'6 8.7
2014-Oct-23 09:24N 40°36' E 003°15'810.0
2014-Oct-23 08:33N 40°30' E 003°07'11 7.5
2014-Oct-23 07:08N 40°23' E 002°57'5 8.0
2014-Oct-23 06:27N 40°19' E 002°51'215 8.5
2014-Oct-22 05:04N 37°44' W 000°21'4 8.6
2014-Oct-22 04:33N 37°40' W 000°24'9 8.7
2014-Oct-22 03:32N 37°33' W 000°31'12 8.8
2014-Oct-22 02:08N 37°27' W 000°44'6 8.8
2014-Oct-22 01:26N 37°24' W 000°51'  
2014-Oct-19 11:09N 35°59' W 005°15'810.8
2014-Oct-19 10:26N 35°58' W 005°24'89 8.8
2014-Oct-19 00:25N 34°55' W 006°41'  

Dump ship's entire track history